createdAt,value
2023-02-21T00:00:58.188Z,88.41
2023-02-21T00:03:43.587Z,88.36
2023-02-21T00:06:29.374Z,88.31
2023-02-21T00:09:14.671Z,89.69
2023-02-21T00:12:04.142Z,88.77
2023-02-21T00:14:49.992Z,89.22
2023-02-21T00:17:35.436Z,89.98
2023-02-21T00:20:21.369Z,90.09
2023-02-21T00:23:06.667Z,90.25
2023-02-21T00:25:52.179Z,90.07
2023-02-21T00:28:38.066Z,90.58
2023-02-21T00:31:24.458Z,91.11
2023-02-21T00:34:10.445Z,90.32
2023-02-21T00:36:55.999Z,91.33
2023-02-21T00:39:41.293Z,89.75
2023-02-21T00:42:26.899Z,90.33
2023-02-21T00:45:12.236Z,90.86
2023-02-21T00:47:57.514Z,90.70
2023-02-21T00:50:43.002Z,90.87
2023-02-21T00:53:28.363Z,91.43
2023-02-21T00:56:13.628Z,90.36
2023-02-21T00:58:59.033Z,90.99
2023-02-21T01:01:44.697Z,90.36
2023-02-21T01:04:30.102Z,91.02
2023-02-21T01:07:15.944Z,91.34
2023-02-21T01:10:01.152Z,90.69
2023-02-21T01:12:46.340Z,90.90
2023-02-21T01:15:33.480Z,91.53
2023-02-21T01:18:18.715Z,91.66
2023-02-21T01:21:04.200Z,90.85
2023-02-21T01:23:51.380Z,91.54
2023-02-21T01:26:37.268Z,92.02
2023-02-21T01:29:22.768Z,91.83
2023-02-21T01:32:08.977Z,91.63
2023-02-21T01:34:54.406Z,91.78
2023-02-21T01:37:39.582Z,92.61
2023-02-21T01:40:25.711Z,93.66
2023-02-21T01:43:11.022Z,94.10
2023-02-21T01:46:06.491Z,94.37
2023-02-21T01:48:53.922Z,93.87
2023-02-21T01:51:45.918Z,93.18
2023-02-21T01:54:32.327Z,93.30
2023-02-21T01:57:20.004Z,93.56
2023-02-21T02:00:07.368Z,93.85
2023-02-21T02:03:00.776Z,92.74
2023-02-21T02:05:47.139Z,92.30
2023-02-21T02:08:35.034Z,92.88
2023-02-21T02:11:42.932Z,93.91
2023-02-21T02:14:54.340Z,93.38
2023-02-21T02:17:56.045Z,94.11
2023-02-21T02:20:57.166Z,94.27
2023-02-21T02:23:54.908Z,94.30
2023-02-21T02:26:59.049Z,93.91
2023-02-21T02:29:50.736Z,94.53
2023-02-21T02:32:37.722Z,93.62
2023-02-21T02:35:23.178Z,94.22
2023-02-21T02:37:57.004Z,93.79
2023-02-21T02:40:50.738Z,93.55
2023-02-21T02:43:29.845Z,94.49
2023-02-21T02:46:13.874Z,95.00
2023-02-21T02:48:47.206Z,95.22
2023-02-21T02:51:16.479Z,95.92
2023-02-21T02:53:43.861Z,95.55
2023-02-21T02:56:16.250Z,95.54
2023-02-21T02:59:11.064Z,95.34
2023-02-21T03:01:51.615Z,96.25
2023-02-21T03:04:47.470Z,96.23
2023-02-21T03:07:20.502Z,96.29
2023-02-21T03:10:22.042Z,96.63
2023-02-21T03:13:08.374Z,96.95
2023-02-21T03:15:49.726Z,97.30
2023-02-21T03:18:38.939Z,97.47
2023-02-21T03:21:13.628Z,97.34
2023-02-21T03:23:43.088Z,96.93
2023-02-21T03:26:12.086Z,97.44
2023-02-21T03:28:40.576Z,97.70
2023-02-21T03:31:10.654Z,97.29
2023-02-21T03:33:37.848Z,96.94
2023-02-21T03:36:06.931Z,97.12
2023-02-21T03:38:35.350Z,97.35
2023-02-21T03:41:02.354Z,97.97
2023-02-21T03:43:29.523Z,97.89
2023-02-21T03:45:56.449Z,97.69
2023-02-21T03:48:31.887Z,97.25
2023-02-21T03:51:00.262Z,96.36
2023-02-21T03:53:27.400Z,96.53
2023-02-21T03:55:54.402Z,97.24
2023-02-21T03:58:21.525Z,97.02
2023-02-21T04:00:48.741Z,96.40
2023-02-21T04:03:15.801Z,96.12
2023-02-21T04:05:43.042Z,95.48
2023-02-21T04:08:10.034Z,95.19
2023-02-21T04:10:46.830Z,96.18
2023-02-21T04:13:19.988Z,97.00
2023-02-21T04:15:47.058Z,97.74
2023-02-21T04:18:13.960Z,98.71
2023-02-21T04:20:40.939Z,98.63
2023-02-21T04:23:07.829Z,98.97
2023-02-21T04:25:34.719Z,99.79
2023-02-21T04:28:01.692Z,100.00
2023-02-21T04:30:28.734Z,100.00
2023-02-21T04:32:55.645Z,100.00
2023-02-21T04:35:22.605Z,100.00
2023-02-21T04:37:49.506Z,100.00
2023-02-21T04:40:16.485Z,100.00
2023-02-21T04:42:43.426Z,100.00
2023-02-21T04:45:10.502Z,100.00
2023-02-21T04:47:37.627Z,100.00
2023-02-21T04:50:05.374Z,100.00
2023-02-21T04:52:32.909Z,100.00
2023-02-21T04:54:59.874Z,100.00
2023-02-21T04:57:27.087Z,100.00
2023-02-21T04:59:59.301Z,100.00
2023-02-21T05:02:27.589Z,100.00
2023-02-21T05:04:54.700Z,100.00
2023-02-21T05:07:21.759Z,100.00
2023-02-21T05:09:48.738Z,100.00
2023-02-21T05:12:15.864Z,100.00
2023-02-21T05:14:43.189Z,100.00
2023-02-21T05:17:10.598Z,99.74
2023-02-21T05:19:37.784Z,100.00
2023-02-21T05:22:07.852Z,100.00
2023-02-21T05:24:35.341Z,100.00
2023-02-21T05:27:02.379Z,100.00
2023-02-21T05:29:29.820Z,100.00
2023-02-21T05:31:56.921Z,100.00
2023-02-21T05:34:23.916Z,100.00
2023-02-21T05:36:50.872Z,100.00
2023-02-21T05:39:17.975Z,100.00
2023-02-21T05:41:51.928Z,100.00
2023-02-21T05:44:18.975Z,100.00
2023-02-21T05:46:48.665Z,100.00
2023-02-21T05:49:16.780Z,100.00
2023-02-21T05:51:44.349Z,100.00
2023-02-21T05:54:17.808Z,100.00
2023-02-21T05:56:47.370Z,100.00
2023-02-21T05:59:17.380Z,100.00
2023-02-21T06:01:44.570Z,100.00
2023-02-21T06:04:11.773Z,100.00
2023-02-21T06:06:39.437Z,100.00
2023-02-21T06:09:06.918Z,100.00
2023-02-21T06:11:37.712Z,100.00
2023-02-21T06:14:12.987Z,100.00
2023-02-21T06:16:40.357Z,100.00
2023-02-21T06:19:09.136Z,100.00
2023-02-21T06:21:36.393Z,100.00
2023-02-21T06:24:04.532Z,100.00
2023-02-21T06:26:31.407Z,100.00
2023-02-21T06:28:58.319Z,100.00
2023-02-21T06:31:25.648Z,100.00
2023-02-21T06:33:53.072Z,100.00
2023-02-21T06:36:25.688Z,100.00
2023-02-21T06:38:56.026Z,100.00
2023-02-21T06:41:29.867Z,100.00
2023-02-21T06:43:59.374Z,100.00
2023-02-21T06:46:30.087Z,100.00
2023-02-21T06:48:57.437Z,100.00
2023-02-21T06:51:29.506Z,100.00
2023-02-21T06:53:58.291Z,100.00
2023-02-21T06:56:25.392Z,100.00
2023-02-21T06:58:52.825Z,100.00
2023-02-21T07:01:20.160Z,100.00
2023-02-21T07:03:47.719Z,100.00
2023-02-21T07:06:15.369Z,100.00
2023-02-21T07:08:42.441Z,100.00
2023-02-21T07:11:09.844Z,100.00
2023-02-21T07:13:37.262Z,100.00
2023-02-21T07:16:05.417Z,100.00
2023-02-21T07:18:32.438Z,100.00
2023-02-21T07:20:59.931Z,100.00
2023-02-21T07:23:27.338Z,100.00
2023-02-21T07:25:55.603Z,100.00
2023-02-21T07:28:22.643Z,100.00
2023-02-21T07:30:49.649Z,100.00
2023-02-21T07:33:16.847Z,100.00
2023-02-21T07:35:44.006Z,100.00
2023-02-21T07:38:10.899Z,100.00
2023-02-21T07:40:37.809Z,99.07
2023-02-21T07:43:04.844Z,99.44
2023-02-21T07:45:31.885Z,99.10
2023-02-21T07:47:58.899Z,99.45
2023-02-21T07:50:25.904Z,98.85
2023-02-21T07:52:53.061Z,99.99
2023-02-21T07:55:21.488Z,100.00
2023-02-21T07:57:48.527Z,98.94
2023-02-21T08:00:15.765Z,98.24
2023-02-21T08:02:50.754Z,98.92
2023-02-21T08:05:19.467Z,98.94
2023-02-21T08:07:47.128Z,98.74
2023-02-21T08:10:24.462Z,98.70
2023-02-21T08:12:51.539Z,99.35
2023-02-21T08:15:19.262Z,98.56
2023-02-21T08:17:49.732Z,98.11
2023-02-21T08:20:17.463Z,97.20
2023-02-21T08:22:44.803Z,96.63
2023-02-21T08:25:14.025Z,97.10
2023-02-21T08:27:44.092Z,98.14
2023-02-21T08:30:14.908Z,97.86
2023-02-21T08:32:41.986Z,96.85
2023-02-21T08:35:08.931Z,96.57
2023-02-21T08:37:36.285Z,95.42
2023-02-21T08:40:05.272Z,94.01
2023-02-21T08:42:32.341Z,94.01
2023-02-21T08:44:59.357Z,94.20
2023-02-21T08:47:26.365Z,94.11
2023-02-21T08:49:53.369Z,93.80
2023-02-21T08:52:21.736Z,93.17
2023-02-21T08:54:48.589Z,91.78
2023-02-21T08:57:15.769Z,92.69
2023-02-21T08:59:45.125Z,93.29
2023-02-21T09:02:18.071Z,91.41
2023-02-21T09:04:45.580Z,89.52
2023-02-21T09:07:14.923Z,90.52
2023-02-21T09:09:42.033Z,89.56
2023-02-21T09:12:10.551Z,89.88
2023-02-21T09:14:39.538Z,89.67
2023-02-21T09:17:10.753Z,89.20
2023-02-21T09:19:37.861Z,88.44
2023-02-21T09:22:08.197Z,86.94
2023-02-21T09:25:28.664Z,86.07
2023-02-21T09:27:55.683Z,86.19
2023-02-21T09:30:26.663Z,85.90
2023-02-21T09:32:55.438Z,85.21
2023-02-21T09:35:23.069Z,83.88
2023-02-21T09:37:50.111Z,81.85
2023-02-21T09:40:39.437Z,82.90
2023-02-21T09:43:15.815Z,81.84
2023-02-21T09:45:44.699Z,81.66
2023-02-21T09:48:19.185Z,80.74
2023-02-21T09:50:53.871Z,81.63
2023-02-21T09:53:27.108Z,80.35
2023-02-21T09:56:06.861Z,79.85
2023-02-21T09:58:37.421Z,78.98
2023-02-21T10:01:22.970Z,78.26
2023-02-21T10:04:33.920Z,77.59
2023-02-21T10:07:35.995Z,77.42
2023-02-21T10:10:10.527Z,76.29
2023-02-21T10:12:52.339Z,75.25
2023-02-21T10:15:43.583Z,75.73
2023-02-21T10:18:29.482Z,75.21
2023-02-21T10:21:01.707Z,74.80
2023-02-21T10:23:43.553Z,73.72
2023-02-21T10:26:16.578Z,72.76
2023-02-21T10:28:44.139Z,73.24
2023-02-21T10:31:42.370Z,71.41
2023-02-21T10:34:23.592Z,73.13
2023-02-21T10:36:51.485Z,72.76
2023-02-21T10:39:33.043Z,72.92
2023-02-21T10:42:01.336Z,70.68
2023-02-21T10:44:35.258Z,70.99
2023-02-21T10:47:16.108Z,70.23
2023-02-21T10:50:08.679Z,70.88
2023-02-21T10:52:52.527Z,69.00
2023-02-21T10:55:32.887Z,69.06
2023-02-21T10:58:17.854Z,70.87
2023-02-21T11:00:48.281Z,70.68
2023-02-21T11:03:18.510Z,69.16
2023-02-21T11:05:54.742Z,68.70
2023-02-21T11:08:44.515Z,67.82
2023-02-21T11:11:11.958Z,68.31
2023-02-21T11:13:39.139Z,68.86
2023-02-21T11:16:20.190Z,66.54
2023-02-21T11:18:47.249Z,68.89
2023-02-21T11:21:19.409Z,67.60
2023-02-21T11:24:02.885Z,66.79
2023-02-21T11:26:52.481Z,67.85
2023-02-21T11:29:25.825Z,64.23
2023-02-21T11:31:54.324Z,65.18
2023-02-21T11:34:21.659Z,66.84
2023-02-21T11:36:52.612Z,66.54
2023-02-21T11:39:29.487Z,66.55
2023-02-21T11:42:04.112Z,65.89
2023-02-21T11:44:39.976Z,65.58
2023-02-21T11:47:34.652Z,64.12
2023-02-21T11:50:27.915Z,65.41
2023-02-21T11:53:13.817Z,63.92
2023-02-21T11:56:03.799Z,64.09
2023-02-21T11:58:42.888Z,63.43
2023-02-21T12:01:17.495Z,63.78
2023-02-21T12:04:06.236Z,61.66
2023-02-21T12:07:01.066Z,61.14
2023-02-21T12:09:40.257Z,61.05
2023-02-21T12:12:48.194Z,58.54
2023-02-21T12:15:27.000Z,58.94
2023-02-21T12:18:26.355Z,58.13
2023-02-21T12:21:24.018Z,59.12
2023-02-21T12:24:05.941Z,58.01
2023-02-21T12:26:53.352Z,58.30
2023-02-21T12:29:59.385Z,58.19
2023-02-21T12:32:37.329Z,57.48
2023-02-21T12:35:37.934Z,56.58
2023-02-21T12:38:15.265Z,55.83
2023-02-21T12:41:45.547Z,55.75
2023-02-21T12:45:16.451Z,55.80
2023-02-21T12:48:11.860Z,56.09
2023-02-21T12:50:53.131Z,57.77
2023-02-21T12:53:34.827Z,56.76
2023-02-21T12:56:37.605Z,56.13
2023-02-21T12:59:28.481Z,55.69
2023-02-21T13:02:29.293Z,55.87
2023-02-21T13:05:05.581Z,53.86
2023-02-21T13:07:48.548Z,55.28
2023-02-21T13:10:18.258Z,54.58
2023-02-21T13:13:01.420Z,53.06
2023-02-21T13:15:30.962Z,53.38
2023-02-21T13:18:21.504Z,52.45
2023-02-21T13:20:56.798Z,52.60
2023-02-21T13:24:04.984Z,52.64
2023-02-21T13:26:44.876Z,51.93
2023-02-21T13:29:33.580Z,51.47
2023-02-21T13:32:17.269Z,52.34
2023-02-21T13:35:00.567Z,52.29
2023-02-21T13:37:31.350Z,51.88
2023-02-21T13:40:17.226Z,52.89
2023-02-21T13:42:44.550Z,50.10
2023-02-21T13:45:19.535Z,51.04
2023-02-21T13:48:00.156Z,50.93
2023-02-21T13:50:43.147Z,50.70
2023-02-21T13:53:35.507Z,50.82
2023-02-21T13:56:08.464Z,51.31
2023-02-21T13:58:36.399Z,51.73
2023-02-21T14:01:18.411Z,50.67
2023-02-21T14:03:46.796Z,50.64
2023-02-21T14:06:42.009Z,52.04
2023-02-21T14:09:19.138Z,50.81
2023-02-21T14:11:52.210Z,51.66
2023-02-21T14:14:31.269Z,51.27
2023-02-21T14:17:02.547Z,52.03
2023-02-21T14:19:41.329Z,51.54
2023-02-21T14:22:46.571Z,50.74
2023-02-21T14:25:24.313Z,50.77
2023-02-21T14:27:53.926Z,50.98
2023-02-21T14:30:33.385Z,51.61
2023-02-21T14:33:24.570Z,51.32
2023-02-21T14:36:09.097Z,51.64
2023-02-21T14:38:42.540Z,50.94
2023-02-21T14:41:18.696Z,51.79
2023-02-21T14:43:51.394Z,51.54
2023-02-21T14:46:49.026Z,50.20
2023-02-21T14:49:27.841Z,50.04
2023-02-21T14:52:24.860Z,50.83
2023-02-21T14:55:49.674Z,48.83
2023-02-21T14:58:22.586Z,49.28
2023-02-21T15:02:05.984Z,48.15
2023-02-21T15:04:48.792Z,48.42
2023-02-21T15:07:48.785Z,47.94
2023-02-21T15:10:23.558Z,47.11
2023-02-21T15:13:01.756Z,47.00
2023-02-21T15:15:39.403Z,47.47
2023-02-21T15:18:15.452Z,47.22
2023-02-21T15:20:43.060Z,48.08
2023-02-21T15:23:09.838Z,47.58
2023-02-21T15:25:37.159Z,46.77
2023-02-21T15:28:18.743Z,48.79
2023-02-21T15:31:06.465Z,50.74
2023-02-21T15:33:37.239Z,51.60
2023-02-21T15:36:17.894Z,51.73
2023-02-21T15:38:52.996Z,52.50
2023-02-21T15:41:41.828Z,52.42
2023-02-21T15:44:25.000Z,53.14
2023-02-21T15:47:17.978Z,53.00
2023-02-21T15:50:13.845Z,53.28
2023-02-21T15:52:53.984Z,53.19
2023-02-21T15:55:22.839Z,53.37
2023-02-21T15:58:12.307Z,53.15
2023-02-21T16:00:46.389Z,53.59
2023-02-21T16:03:48.950Z,53.77
2023-02-21T16:06:32.371Z,53.67
2023-02-21T16:09:04.490Z,53.67
2023-02-21T16:11:46.739Z,54.26
2023-02-21T16:14:39.333Z,58.10
2023-02-21T16:17:06.259Z,59.01
2023-02-21T16:19:33.923Z,57.88
2023-02-21T16:22:21.616Z,58.84
2023-02-21T16:24:48.524Z,59.25
2023-02-21T16:27:18.452Z,59.98
2023-02-21T16:29:46.433Z,60.44
2023-02-21T16:32:21.261Z,61.73
2023-02-21T16:34:54.763Z,61.45
2023-02-21T16:37:23.145Z,62.08
2023-02-21T16:39:50.379Z,64.52
2023-02-21T16:42:17.349Z,64.15
2023-02-21T16:44:44.352Z,64.44
2023-02-21T16:47:16.587Z,64.52
2023-02-21T16:49:44.386Z,65.62
2023-02-21T16:52:16.292Z,66.48
2023-02-21T16:54:43.614Z,66.01
2023-02-21T16:57:11.644Z,67.04
2023-02-21T16:59:38.752Z,67.64
2023-02-21T17:02:06.695Z,69.06
2023-02-21T17:04:33.933Z,69.46
2023-02-21T17:07:09.540Z,69.89
2023-02-21T17:09:39.914Z,70.76
2023-02-21T17:12:07.638Z,70.39
2023-02-21T17:14:35.052Z,70.27
2023-02-21T17:17:02.032Z,70.65
2023-02-21T17:19:29.015Z,71.28
2023-02-21T17:21:58.192Z,72.06
2023-02-21T17:24:25.094Z,72.78
2023-02-21T17:26:53.849Z,74.89
2023-02-21T17:29:21.849Z,74.48
2023-02-21T17:31:54.058Z,75.77
2023-02-21T17:34:21.297Z,76.37
2023-02-21T17:36:53.489Z,77.75
2023-02-21T17:39:21.582Z,77.25
2023-02-21T17:41:50.417Z,76.97
2023-02-21T17:44:18.415Z,77.91
2023-02-21T17:46:55.316Z,78.62
2023-02-21T17:49:25.844Z,80.24
2023-02-21T17:51:53.790Z,81.66
2023-02-21T17:54:24.484Z,81.56
2023-02-21T17:56:52.036Z,81.07
2023-02-21T17:59:19.826Z,81.62
2023-02-21T18:01:47.083Z,83.60
2023-02-21T18:04:14.961Z,84.15
2023-02-21T18:06:44.074Z,84.35
2023-02-21T18:09:11.195Z,83.89
2023-02-21T18:11:38.320Z,83.98
2023-02-21T18:14:05.804Z,82.41
2023-02-21T18:16:32.793Z,80.66
2023-02-21T18:18:59.783Z,80.15
2023-02-21T18:21:27.526Z,80.68
2023-02-21T18:23:54.666Z,79.01
2023-02-21T18:26:22.439Z,76.99
2023-02-21T18:28:49.685Z,77.36
2023-02-21T18:31:19.447Z,78.94
2023-02-21T18:33:46.885Z,78.78
2023-02-21T18:36:13.947Z,79.96
2023-02-21T18:38:42.427Z,80.49
2023-02-21T18:41:20.755Z,80.93
2023-02-21T18:43:47.820Z,79.71
2023-02-21T18:46:18.420Z,79.86
2023-02-21T18:48:48.565Z,81.63
2023-02-21T18:51:19.969Z,84.46
2023-02-21T18:53:48.925Z,82.59
2023-02-21T18:56:19.606Z,80.78
2023-02-21T18:58:49.684Z,82.33
2023-02-21T19:01:21.744Z,84.43
2023-02-21T19:03:53.684Z,85.39
2023-02-21T19:06:23.023Z,85.90
2023-02-21T19:08:50.740Z,85.75
2023-02-21T19:11:18.343Z,85.61
2023-02-21T19:13:47.342Z,85.87
2023-02-21T19:16:14.742Z,85.49
2023-02-21T19:18:41.900Z,85.60
2023-02-21T19:21:12.699Z,85.62
2023-02-21T19:23:40.712Z,85.69
2023-02-21T19:26:08.684Z,86.41
2023-02-21T19:28:37.361Z,85.79
2023-02-21T19:31:06.470Z,86.17
2023-02-21T19:33:34.081Z,86.45
2023-02-21T19:36:07.745Z,86.17
2023-02-21T19:38:35.476Z,86.42
2023-02-21T19:41:06.453Z,86.64
2023-02-21T19:43:34.612Z,86.68
2023-02-21T19:46:01.861Z,87.29
2023-02-21T19:48:28.879Z,87.72
2023-02-21T19:50:57.450Z,88.23
2023-02-21T19:53:24.319Z,89.56
2023-02-21T19:55:51.240Z,89.65
2023-02-21T19:58:19.848Z,90.41
2023-02-21T20:00:47.182Z,89.98
2023-02-21T20:03:15.021Z,89.67
2023-02-21T20:05:42.001Z,88.28
2023-02-21T20:08:08.928Z,87.91
2023-02-21T20:10:36.290Z,88.43
2023-02-21T20:13:06.244Z,88.70
2023-02-21T20:15:36.832Z,88.20
2023-02-21T20:18:04.614Z,88.43
2023-02-21T20:20:31.596Z,87.85
2023-02-21T20:22:58.574Z,87.97
2023-02-21T20:25:25.602Z,88.30
2023-02-21T20:27:52.625Z,88.37
2023-02-21T20:30:19.746Z,88.78
2023-02-21T20:32:46.824Z,88.10
2023-02-21T20:35:13.842Z,89.51
2023-02-21T20:37:40.876Z,90.63
2023-02-21T20:40:10.926Z,91.35
2023-02-21T20:42:38.107Z,91.85
2023-02-21T20:45:05.668Z,92.99
2023-02-21T20:47:32.668Z,93.76
2023-02-21T20:50:00.019Z,94.09
2023-02-21T20:52:27.009Z,93.95
2023-02-21T20:54:54.270Z,93.95
2023-02-21T20:57:21.204Z,93.71
2023-02-21T20:59:48.432Z,93.94
2023-02-21T21:02:15.421Z,94.06
2023-02-21T21:04:43.914Z,92.95
2023-02-21T21:07:16.154Z,93.01
2023-02-21T21:09:44.503Z,93.27
2023-02-21T21:12:15.332Z,93.79
2023-02-21T21:14:45.153Z,93.54
2023-02-21T21:17:16.997Z,93.52
2023-02-21T21:19:47.939Z,92.81
2023-02-21T21:22:19.387Z,92.34
2023-02-21T21:24:46.846Z,92.56
2023-02-21T21:27:15.357Z,94.66
2023-02-21T21:29:45.608Z,97.21
2023-02-21T21:32:21.748Z,96.25
2023-02-21T21:34:59.117Z,96.60
2023-02-21T21:37:29.108Z,97.07
2023-02-21T21:39:56.999Z,97.32
2023-02-21T21:42:27.732Z,96.85
2023-02-21T21:44:56.794Z,97.46
2023-02-21T21:47:33.761Z,97.58
2023-02-21T21:50:02.399Z,98.13
2023-02-21T21:52:30.043Z,98.49
2023-02-21T21:54:58.056Z,99.19
2023-02-21T21:57:27.183Z,99.96
2023-02-21T21:59:55.140Z,99.85
2023-02-21T22:02:22.058Z,99.39
2023-02-21T22:04:49.034Z,98.96
2023-02-21T22:07:16.020Z,97.72
2023-02-21T22:09:42.961Z,96.79
2023-02-21T22:12:09.892Z,96.97
2023-02-21T22:14:36.901Z,95.73
2023-02-21T22:17:05.413Z,95.71
2023-02-21T22:19:34.579Z,95.89
2023-02-21T22:22:05.449Z,95.60
2023-02-21T22:24:33.694Z,94.20
2023-02-21T22:27:00.604Z,94.85
2023-02-21T22:29:27.754Z,94.79
2023-02-21T22:31:54.959Z,94.19
2023-02-21T22:34:24.031Z,93.48
2023-02-21T22:36:57.334Z,93.66
2023-02-21T22:39:25.973Z,93.54
2023-02-21T22:41:53.358Z,93.96
2023-02-21T22:44:20.821Z,93.93
2023-02-21T22:46:58.260Z,94.96
2023-02-21T22:49:29.380Z,95.41
2023-02-21T22:51:57.704Z,95.23
2023-02-21T22:54:25.823Z,95.16
2023-02-21T22:56:54.679Z,95.08
2023-02-21T22:59:26.340Z,95.26
2023-02-21T23:01:53.747Z,95.54
2023-02-21T23:04:26.896Z,95.21
2023-02-21T23:06:59.309Z,97.89
2023-02-21T23:09:29.102Z,100.00
2023-02-21T23:12:00.335Z,100.00
2023-02-21T23:14:31.597Z,100.00
2023-02-21T23:16:59.500Z,100.00
2023-02-21T23:19:30.124Z,100.00
2023-02-21T23:21:57.885Z,100.00
2023-02-21T23:24:25.226Z,100.00
2023-02-21T23:26:54.659Z,100.00
2023-02-21T23:29:25.053Z,100.00
2023-02-21T23:31:57.745Z,100.00
2023-02-21T23:34:39.890Z,100.00
2023-02-21T23:37:09.090Z,100.00
2023-02-21T23:39:36.274Z,100.00
2023-02-21T23:42:03.618Z,100.00
2023-02-21T23:44:30.561Z,100.00
2023-02-21T23:46:59.337Z,100.00
2023-02-21T23:49:26.389Z,100.00
2023-02-21T23:51:53.735Z,100.00
2023-02-21T23:54:21.196Z,100.00
2023-02-21T23:56:48.920Z,100.00
2023-02-21T23:59:16.611Z,100.00
